Time;durP1;ratioP1;P1;durP2;ratioP2;P2;SDS_P1;SDS_P2;PMS_P1;PMS_P2;Temp;Humidity;BMP_temperature;BMP_pressure;BME280_temperature;BME280_humidity;BME280_pressure;Samples;Min_cycle;Max_cycle;Signal;HPM_P1;HPM_P2
2023/10/15 00:01:59;;;;;;;4.53;2.10;;;9.60;99.90;;;;;;5020341;28;20714;-65
2023/10/15 00:04:26;;;;;;;4.43;2.23;;;9.70;99.90;;;;;;5021759;28;20202;-65
2023/10/15 00:06:54;;;;;;;3.27;1.63;;;9.70;99.90;;;;;;5023619;28;20203;-64
2023/10/15 00:09:21;;;;;;;6.83;1.87;;;9.80;99.90;;;;;;5015361;28;20211;-64
2023/10/15 00:11:47;;;;;;;4.13;1.90;;;9.80;99.90;;;;;;5023431;28;20229;-65
2023/10/15 00:14:14;;;;;;;4.10;1.90;;;9.80;99.90;;;;;;5023467;28;20217;-65
2023/10/15 00:16:42;;;;;;;5.20;1.87;;;9.80;99.90;;;;;;5019902;28;20269;-65
2023/10/15 00:19:10;;;;;;;3.27;1.83;;;9.70;99.90;;;;;;5019985;28;20211;-65
2023/10/15 00:21:37;;;;;;;4.30;1.80;;;9.70;99.90;;;;;;5022575;28;20319;-65
2023/10/15 00:24:10;;;;;;;5.13;1.90;;;9.70;99.90;;;;;;5023387;28;20212;-65
2023/10/15 00:26:38;;;;;;;5.60;1.80;;;9.70;99.90;;;;;;5019731;28;20206;-65
2023/10/15 00:29:07;;;;;;;3.90;2.23;;;9.70;99.90;;;;;;5019773;28;20707;-64
2023/10/15 00:31:34;;;;;;;3.73;2.13;;;9.70;99.90;;;;;;5021854;28;20227;-65
2023/10/15 00:34:01;;;;;;;5.70;2.37;;;9.70;99.90;;;;;;5023275;28;20198;-64
2023/10/15 00:36:28;;;;;;;4.23;2.77;;;9.80;99.90;;;;;;5021310;28;20225;-65
2023/10/15 00:38:55;;;;;;;5.63;2.03;;;9.80;99.90;;;;;;5019718;28;20234;-65
2023/10/15 00:41:23;;;;;;;7.63;2.23;;;9.80;99.90;;;;;;5020028;28;20230;-64
2023/10/15 00:43:52;;;;;;;6.87;1.50;;;9.70;99.90;;;;;;5022966;28;20206;-64
2023/10/15 00:46:19;;;;;;;7.33;1.87;;;9.60;99.90;;;;;;5022724;28;20607;-65
2023/10/15 00:48:47;;;;;;;3.97;1.70;;;9.60;99.90;;;;;;5019601;28;20582;-65
2023/10/15 00:51:14;;;;;;;5.33;1.73;;;9.50;99.90;;;;;;5019502;28;20218;-65
2023/10/15 00:53:49;;;;;;;5.93;2.10;;;9.40;99.90;;;;;;5022565;28;20256;-66
2023/10/15 00:56:18;;;;;;;3.57;1.93;;;9.40;99.90;;;;;;5023052;28;20221;-65
2023/10/15 00:59:08;;;;;;;5.23;2.50;;;9.40;99.90;;;;;;5019630;28;20206;-66
2023/10/15 01:01:38;;;;;;;4.90;1.77;;;9.50;99.90;;;;;;5021644;28;20258;-65
2023/10/15 01:04:06;;;;;;;7.50;1.70;;;9.50;99.90;;;;;;5022904;28;20590;-65
2023/10/15 01:06:38;;;;;;;2.37;1.40;;;9.60;99.90;;;;;;5020846;28;20208;-63
2023/10/15 01:09:09;;;;;;;5.20;1.47;;;9.60;99.90;;;;;;5019347;28;20210;-63
2023/10/15 01:11:37;;;;;;;5.70;1.50;;;9.60;99.90;;;;;;5021775;28;20245;-63
2023/10/15 01:14:10;;;;;;;5.97;1.80;;;9.70;99.90;;;;;;5022733;28;20206;-63
2023/10/15 01:16:38;;;;;;;3.47;1.63;;;9.70;99.90;;;;;;5019912;28;20228;-63
2023/10/15 01:19:15;;;;;;;4.63;1.67;;;9.80;99.90;;;;;;5019314;28;20553;-63
2023/10/15 01:21:49;;;;;;;3.77;1.50;;;9.90;99.90;;;;;;5022361;28;20746;-62
2023/10/15 01:24:18;;;;;;;4.87;1.40;;;9.90;99.90;;;;;;5022726;28;20210;-62
2023/10/15 01:26:54;;;;;;;5.73;1.70;;;9.90;99.90;;;;;;5019045;28;20285;-63
2023/10/15 01:29:23;;;;;;;4.93;1.70;;;10.00;99.90;;;;;;5018930;28;20572;-62
2023/10/15 01:31:51;;;;;;;5.50;2.00;;;10.00;99.90;;;;;;5022588;28;20218;-63
2023/10/15 01:34:21;;;;;;;3.63;1.73;;;10.00;99.90;;;;;;5022578;28;20202;-62
2023/10/15 01:36:48;;;;;;;4.53;1.40;;;10.00;99.90;;;;;;5019295;28;20219;-62
2023/10/15 01:39:21;;;;;;;3.50;1.60;;;10.00;99.90;;;;;;5022886;28;20203;-62
2023/10/15 01:41:55;;;;;;;4.83;1.40;;;9.90;99.90;;;;;;5023178;28;20239;-64
2023/10/15 01:44:24;;;;;;;5.53;2.10;;;9.90;99.90;;;;;;5023733;28;20656;-62
2023/10/15 01:47:07;;;;;;;4.13;1.87;;;9.90;99.90;;;;;;5026388;28;20294;-63
2023/10/15 01:49:34;;;;;;;4.60;1.70;;;9.80;99.90;;;;;;5024208;28;20210;-62
2023/10/15 01:52:05;;;;;;;3.37;1.50;;;9.80;99.90;;;;;;5022918;28;20203;-64
2023/10/15 01:54:33;;;;;;;4.33;1.83;;;9.90;99.90;;;;;;5024651;28;20301;-62
2023/10/15 01:57:06;;;;;;;4.93;1.87;;;9.90;99.90;;;;;;5026178;28;20608;-63
2023/10/15 01:59:41;;;;;;;4.03;1.73;;;9.80;99.90;;;;;;5024020;28;20214;-62
2023/10/15 02:02:08;;;;;;;2.83;1.40;;;9.90;99.90;;;;;;5022762;28;20295;-61
2023/10/15 02:04:42;;;;;;;2.77;1.47;;;9.90;99.90;;;;;;5024530;28;20237;-62
2023/10/15 02:07:12;;;;;;;3.53;1.50;;;9.90;99.90;;;;;;5025981;28;20233;-60
2023/10/15 02:09:39;;;;;;;3.27;1.50;;;9.90;99.90;;;;;;5023274;28;20205;-63
2023/10/15 02:12:07;;;;;;;4.10;1.43;;;9.90;99.90;;;;;;5022556;28;20290;-62
2023/10/15 02:14:34;;;;;;;4.17;1.40;;;9.90;99.90;;;;;;5024070;28;20211;-61
2023/10/15 02:17:05;;;;;;;2.57;1.30;;;9.90;99.90;;;;;;5025523;28;20665;-62
2023/10/15 02:19:40;;;;;;;4.43;1.83;;;9.90;99.90;;;;;;5024398;28;20202;-62
2023/10/15 02:22:07;;;;;;;4.50;1.73;;;9.90;99.90;;;;;;5022672;28;20213;-62
2023/10/15 02:24:34;;;;;;;4.60;1.70;;;9.90;99.90;;;;;;5024351;28;20211;-63
2023/10/15 02:27:05;;;;;;;4.80;1.67;;;10.00;99.90;;;;;;5025847;28;20202;-64
2023/10/15 02:29:36;;;;;;;3.17;1.70;;;10.00;99.90;;;;;;5023642;28;20210;-63
2023/10/15 02:32:20;;;;;;;4.07;1.77;;;10.00;99.90;;;;;;5022359;28;20210;-62
2023/10/15 02:34:50;;;;;;;5.37;1.67;;;10.10;99.90;;;;;;5022266;28;20207;-63
2023/10/15 02:37:18;;;;;;;6.50;2.07;;;10.10;99.90;;;;;;5021926;28;20223;-63
2023/10/15 02:39:50;;;;;;;9.93;1.70;;;10.10;99.90;;;;;;5024967;28;20199;-62
2023/10/15 02:42:16;;;;;;;3.60;2.00;;;10.10;99.90;;;;;;5025360;28;20203;-63
2023/10/15 02:44:45;;;;;;;4.90;1.87;;;10.10;99.90;;;;;;5022177;28;20203;-62
2023/10/15 02:47:19;;;;;;;3.30;1.93;;;10.00;99.90;;;;;;5021823;28;20688;-64
2023/10/15 02:49:53;;;;;;;3.20;2.10;;;10.00;99.90;;;;;;5024278;28;20201;-62
2023/10/15 02:52:20;;;;;;;6.13;1.60;;;10.00;99.90;;;;;;5025475;28;20206;-62
2023/10/15 02:54:47;;;;;;;5.20;1.33;;;10.00;99.90;;;;;;5021793;28;20273;-63
2023/10/15 02:57:16;;;;;;;5.03;1.50;;;10.00;99.90;;;;;;5021660;28;20229;-63
2023/10/15 02:59:52;;;;;;;4.47;1.67;;;10.00;99.90;;;;;;5024365;28;20675;-62
2023/10/15 03:02:20;;;;;;;2.87;1.20;;;10.00;99.90;;;;;;5025507;28;20206;-63
2023/10/15 03:04:53;;;;;;;3.50;1.70;;;10.00;99.90;;;;;;5021788;28;20206;-62
2023/10/15 03:07:25;;;;;;;4.27;1.40;;;10.00;99.90;;;;;;5021636;28;20202;-63
2023/10/15 03:09:56;;;;;;;3.80;1.63;;;10.00;99.90;;;;;;5021766;28;20211;-62
2023/10/15 03:12:23;;;;;;;2.97;1.27;;;10.00;99.90;;;;;;5021853;28;20211;-63
2023/10/15 03:14:52;;;;;;;6.50;1.70;;;10.00;99.90;;;;;;5025013;28;20203;-64
2023/10/15 03:17:25;;;;;;;6.07;2.13;;;10.00;99.90;;;;;;5024699;28;20245;-63
2023/10/15 03:22:18;;;;;;;6.40;1.80;;;10.00;99.90;;;;;;5032466;22;20226;-56
2023/10/15 03:24:49;;;;;;;5.67;1.90;;;10.10;99.90;;;;;;5005009;28;20207;-55
2023/10/15 03:27:22;;;;;;;5.23;1.40;;;10.10;99.90;;;;;;5012855;28;20199;-55
2023/10/15 03:29:48;;;;;;;6.20;1.50;;;10.20;99.90;;;;;;5004742;28;20269;-57
2023/10/15 03:32:17;;;;;;;5.73;1.40;;;10.30;99.90;;;;;;5023732;28;20222;-56
2023/10/15 03:34:47;;;;;;;5.90;1.60;;;10.40;99.90;;;;;;5021460;28;20211;-56
2023/10/15 03:37:14;;;;;;;3.07;1.50;;;10.40;99.90;;;;;;5021268;28;20215;-56
2023/10/15 03:39:57;;;;;;;3.27;1.57;;;10.40;99.90;;;;;;5023245;28;20211;-56
2023/10/15 03:42:27;;;;;;;3.80;1.50;;;10.50;99.90;;;;;;5024146;28;20234;-56
2023/10/15 03:44:59;;;;;;;3.20;1.30;;;10.50;99.90;;;;;;5020754;28;20203;-56
2023/10/15 03:47:27;;;;;;;6.77;1.77;;;10.50;99.90;;;;;;5021141;28;20210;-56
2023/10/15 03:49:55;;;;;;;3.23;1.40;;;10.50;99.90;;;;;;5023913;28;20207;-57
2023/10/15 03:52:23;;;;;;;4.60;1.70;;;10.50;99.90;;;;;;5023972;28;20226;-55
2023/10/15 03:54:50;;;;;;;3.67;1.70;;;10.40;99.90;;;;;;5020369;28;20221;-54
2023/10/15 03:57:18;;;;;;;3.13;1.57;;;10.40;99.90;;;;;;5020056;28;20235;-56
2023/10/15 03:59:51;;;;;;;7.40;1.83;;;10.40;99.90;;;;;;5022858;28;20234;-57
2023/10/15 04:02:22;;;;;;;2.60;1.50;;;10.40;99.90;;;;;;5023584;28;20222;-56
2023/10/15 04:04:56;;;;;;;4.20;1.50;;;10.40;99.90;;;;;;5023601;28;20272;-55
2023/10/15 04:07:25;;;;;;;3.67;1.57;;;10.50;99.90;;;;;;5023455;28;20296;-55
2023/10/15 04:09:52;;;;;;;2.90;1.40;;;10.50;99.90;;;;;;5020089;28;20203;-55
2023/10/15 04:12:19;;;;;;;3.90;1.60;;;10.50;99.90;;;;;;5019997;28;20230;-56
2023/10/15 04:14:46;;;;;;;3.40;1.87;;;10.50;99.90;;;;;;5022888;28;20230;-56
2023/10/15 04:17:15;;;;;;;2.87;1.60;;;10.60;99.90;;;;;;5023131;28;20273;-56
2023/10/15 04:19:43;;;;;;;4.33;1.50;;;10.50;99.90;;;;;;5020525;28;20260;-57
2023/10/15 04:22:14;;;;;;;3.60;1.60;;;10.60;99.90;;;;;;5019676;28;20239;-56
2023/10/15 04:24:46;;;;;;;3.90;1.37;;;10.60;99.90;;;;;;5022193;28;20219;-55
2023/10/15 04:27:16;;;;;;;3.40;1.30;;;10.60;99.90;;;;;;5023191;28;20616;-55
2023/10/15 04:29:50;;;;;;;3.63;1.50;;;10.70;99.90;;;;;;5020559;28;20293;-56
2023/10/15 04:32:28;;;;;;;4.57;1.43;;;10.70;99.90;;;;;;5019694;28;20226;-55
2023/10/15 04:35:01;;;;;;;4.33;1.90;;;10.70;99.90;;;;;;5021124;28;20207;-56
2023/10/15 04:37:34;;;;;;;3.53;1.57;;;10.80;99.90;;;;;;5021087;28;20261;-55
2023/10/15 04:40:04;;;;;;;5.90;1.73;;;10.70;99.90;;;;;;5023029;28;20202;-55
2023/10/15 04:42:37;;;;;;;4.77;1.90;;;10.80;99.90;;;;;;5021870;28;20710;-56
2023/10/15 04:45:20;;;;;;;4.33;1.67;;;10.80;99.90;;;;;;5019498;28;20231;-57
2023/10/15 04:47:51;;;;;;;5.50;2.00;;;10.80;99.90;;;;;;5022599;28;20202;-55
2023/10/15 04:50:17;;;;;;;5.93;1.70;;;10.80;99.90;;;;;;5022687;28;20390;-56
2023/10/15 04:52:45;;;;;;;6.07;2.00;;;10.90;99.90;;;;;;5019993;28;20651;-56
2023/10/15 04:55:13;;;;;;;3.60;1.93;;;10.90;99.90;;;;;;5019394;28;20207;-57
2023/10/15 04:57:40;;;;;;;4.47;2.13;;;10.90;99.90;;;;;;5021024;28;20707;-56
2023/10/15 05:00:08;;;;;;;7.20;2.07;;;10.90;99.90;;;;;;5022762;28;20206;-56
2023/10/15 05:02:34;;;;;;;6.30;2.47;;;10.90;99.90;;;;;;5021231;28;20206;-55
2023/10/15 05:05:02;;;;;;;6.10;2.10;;;10.90;99.90;;;;;;5019356;28;20290;-55
2023/10/15 05:07:28;;;;;;;3.53;2.23;;;10.90;99.90;;;;;;5019324;28;20210;-56
2023/10/15 05:09:57;;;;;;;3.50;1.80;;;10.90;99.90;;;;;;5022076;28;20680;-56
2023/10/15 05:12:24;;;;;;;5.47;1.90;;;10.90;99.90;;;;;;5022146;28;20209;-55
2023/10/15 05:14:51;;;;;;;4.80;1.90;;;10.80;99.90;;;;;;5022456;28;20213;-56
2023/10/15 05:17:17;;;;;;;5.87;2.00;;;10.90;99.90;;;;;;5022453;28;20222;-56
2023/10/15 05:19:44;;;;;;;3.90;2.00;;;10.80;99.90;;;;;;5019571;28;20202;-56
2023/10/15 05:22:11;;;;;;;4.20;2.30;;;10.90;99.90;;;;;;5018670;28;20313;-56
2023/10/15 05:24:38;;;;;;;4.47;1.90;;;10.90;99.90;;;;;;5020230;28;20605;-56
2023/10/15 05:27:06;;;;;;;7.60;2.50;;;11.00;99.90;;;;;;5022262;28;20222;-55
2023/10/15 05:29:32;;;;;;;6.37;3.23;;;11.00;99.90;;;;;;5021306;28;20290;-55
2023/10/15 05:32:00;;;;;;;10.43;6.03;;;11.00;99.90;;;;;;5019007;28;20222;-56
2023/10/15 05:34:26;;;;;;;5.57;2.70;;;11.10;99.90;;;;;;5019024;28;20207;-56
2023/10/15 05:36:53;;;;;;;7.10;3.63;;;11.20;99.90;;;;;;5021883;28;20208;-57
2023/10/15 05:39:20;;;;;;;5.87;3.47;;;11.30;99.90;;;;;;5021740;28;20686;-55
2023/10/15 05:41:46;;;;;;;3.43;2.40;;;11.30;99.90;;;;;;5019257;28;20234;-56
2023/10/15 05:44:14;;;;;;;5.70;2.70;;;11.40;99.90;;;;;;5018873;28;20199;-56
2023/10/15 05:46:41;;;;;;;3.77;1.70;;;11.50;99.90;;;;;;5020292;28;20207;-57
2023/10/15 05:49:08;;;;;;;4.43;1.87;;;11.50;99.90;;;;;;5021890;28;20715;-56
2023/10/15 05:51:34;;;;;;;3.00;1.70;;;11.50;99.90;;;;;;5020867;28;20222;-56
2023/10/15 05:54:02;;;;;;;4.83;1.70;;;11.60;99.90;;;;;;5018666;28;20680;-57
2023/10/15 05:56:29;;;;;;;4.83;1.77;;;11.50;99.90;;;;;;5019006;28;20635;-55
2023/10/15 05:58:55;;;;;;;6.43;2.47;;;11.40;99.90;;;;;;5022146;28;20616;-57
2023/10/15 06:01:23;;;;;;;4.77;2.50;;;11.40;99.90;;;;;;5021774;28;20293;-56
2023/10/15 06:03:50;;;;;;;5.13;2.53;;;11.50;99.90;;;;;;5018689;28;20210;-55
2023/10/15 06:06:17;;;;;;;4.93;2.27;;;11.60;99.90;;;;;;5018518;28;20253;-56
2023/10/15 06:08:44;;;;;;;6.23;2.30;;;11.60;99.90;;;;;;5020402;28;20203;-56
2023/10/15 06:11:12;;;;;;;6.70;2.90;;;11.60;99.90;;;;;;5022083;28;20254;-56
2023/10/15 06:13:39;;;;;;;5.37;3.30;;;11.70;99.90;;;;;;5020487;28;20238;-55
2023/10/15 06:16:05;;;;;;;4.73;2.60;;;11.70;99.90;;;;;;5018426;28;20214;-57
2023/10/15 06:18:33;;;;;;;5.70;2.97;;;11.70;99.90;;;;;;5018632;28;20700;-55
2023/10/15 06:21:00;;;;;;;7.50;2.53;;;11.80;99.90;;;;;;5021257;28;20233;-55
2023/10/15 06:23:27;;;;;;;4.10;2.40;;;11.80;99.90;;;;;;5021786;28;20205;-55
2023/10/15 06:25:54;;;;;;;4.37;2.00;;;11.70;99.90;;;;;;5021159;28;20199;-56
2023/10/15 06:28:20;;;;;;;7.17;2.23;;;11.70;99.90;;;;;;5021775;28;20373;-56
2023/10/15 06:30:47;;;;;;;4.03;1.80;;;11.80;99.90;;;;;;5024360;28;20250;-56
2023/10/15 06:33:16;;;;;;;4.17;2.27;;;11.80;99.90;;;;;;5025164;28;20206;-57
2023/10/15 06:35:44;;;;;;;5.37;2.00;;;11.90;99.90;;;;;;5023434;28;20218;-56
2023/10/15 06:38:11;;;;;;;5.27;1.60;;;12.10;99.90;;;;;;5021613;28;20234;-55
2023/10/15 06:40:38;;;;;;;5.37;2.90;;;12.20;99.90;;;;;;5023050;28;20231;-55
2023/10/15 06:43:05;;;;;;;6.30;2.53;;;12.40;99.90;;;;;;5024888;28;20201;-55
2023/10/15 06:45:32;;;;;;;5.43;2.10;;;12.40;99.90;;;;;;5024359;28;20718;-54
2023/10/15 06:48:00;;;;;;;4.57;1.90;;;12.50;99.90;;;;;;5021975;28;20230;-55
2023/10/15 06:50:26;;;;;;;5.17;2.03;;;12.50;99.90;;;;;;5021464;28;20309;-56
2023/10/15 06:52:55;;;;;;;4.93;1.70;;;12.50;99.90;;;;;;5024739;28;20215;-54
2023/10/15 06:55:22;;;;;;;4.17;1.90;;;12.50;99.90;;;;;;5024904;28;20217;-55
2023/10/15 06:57:49;;;;;;;3.90;1.50;;;12.50;99.90;;;;;;5021858;28;20318;-56
2023/10/15 07:00:21;;;;;;;5.23;2.50;;;12.40;99.90;;;;;;5021257;28;20230;-55
2023/10/15 07:02:49;;;;;;;4.23;1.90;;;12.40;99.90;;;;;;5023921;28;20277;-55
2023/10/15 07:05:17;;;;;;;4.43;1.90;;;12.50;99.90;;;;;;5024524;28;20718;-55
2023/10/15 07:07:45;;;;;;;5.27;1.43;;;12.60;99.90;;;;;;5022527;28;20260;-55
2023/10/15 07:10:15;;;;;;;6.33;1.80;;;12.60;99.90;;;;;;5021043;28;20211;-55
2023/10/15 07:12:44;;;;;;;6.00;2.17;;;12.90;99.90;;;;;;5022842;28;20215;-55
2023/10/15 07:15:13;;;;;;;4.47;1.90;;;13.10;99.90;;;;;;5024661;28;20216;-55
2023/10/15 07:17:40;;;;;;;4.87;1.90;;;13.40;99.90;;;;;;5023024;28;20280;-55
2023/10/15 07:20:14;;;;;;;6.17;2.83;;;13.70;99.90;;;;;;5020816;28;20558;-56
2023/10/15 07:22:42;;;;;;;5.30;2.17;;;13.80;99.90;;;;;;5022563;28;20210;-53
2023/10/15 07:25:09;;;;;;;4.30;1.87;;;14.10;99.90;;;;;;5024520;28;20233;-55
2023/10/15 07:27:41;;;;;;;4.13;2.00;;;14.30;99.90;;;;;;5023329;28;20242;-55
2023/10/15 07:30:11;;;;;;;5.23;2.53;;;14.50;99.90;;;;;;5021021;28;20257;-55
2023/10/15 07:32:39;;;;;;;4.67;1.60;;;14.70;99.90;;;;;;5022231;28;20276;-55
2023/10/15 07:35:07;;;;;;;7.03;1.93;;;14.90;99.90;;;;;;5023987;28;20253;-58
2023/10/15 07:37:35;;;;;;;4.03;1.77;;;15.00;99.90;;;;;;5023423;28;20238;-58
2023/10/15 07:40:05;;;;;;;5.53;1.67;;;15.10;99.90;;;;;;5020452;28;20270;-57
2023/10/15 07:42:33;;;;;;;6.27;2.50;;;15.20;99.90;;;;;;5021169;28;20290;-57
2023/10/15 07:45:02;;;;;;;6.22;1.92;;;15.20;99.90;;;;;;5023960;28;20202;-60
2023/10/15 07:47:29;;;;;;;8.05;2.08;;;15.30;99.90;;;;;;5024282;28;20207;-58
2023/10/15 07:49:57;;;;;;;7.53;2.22;;;15.30;99.90;;;;;;5020168;28;20195;-58
2023/10/15 07:52:24;;;;;;;4.65;1.90;;;15.20;99.90;;;;;;5020341;28;20720;-57
2023/10/15 07:54:51;;;;;;;4.25;1.65;;;15.00;99.90;;;;;;5023172;28;20234;-58
2023/10/15 07:57:18;;;;;;;4.93;1.63;;;14.80;99.90;;;;;;5023833;28;20206;-63
2023/10/15 07:59:45;;;;;;;4.20;1.73;;;14.60;99.90;;;;;;5021338;28;20308;-59
2023/10/15 08:02:13;;;;;;;5.10;1.90;;;14.20;99.90;;;;;;5020015;28;20253;-59
2023/10/15 08:04:39;;;;;;;5.53;2.07;;;14.20;99.90;;;;;;5021320;28;20203;-58
2023/10/15 08:07:08;;;;;;;3.70;1.70;;;14.40;99.90;;;;;;5023217;28;20205;-59
2023/10/15 08:09:36;;;;;;;5.07;2.03;;;14.60;99.90;;;;;;5022575;28;20244;-58
2023/10/15 08:12:03;;;;;;;6.70;2.07;;;14.70;99.90;;;;;;5020097;28;20258;-58
2023/10/15 08:14:30;;;;;;;4.28;2.00;;;14.70;99.90;;;;;;5019936;28;20669;-59
2023/10/15 08:16:57;;;;;;;6.78;2.05;;;14.50;99.90;;;;;;5020013;28;20203;-58
2023/10/15 08:19:25;;;;;;;5.93;2.67;;;14.30;99.90;;;;;;5019665;28;20215;-60
2023/10/15 08:21:52;;;;;;;7.50;2.20;;;14.30;99.90;;;;;;5022304;28;20260;-58
2023/10/15 08:24:19;;;;;;;5.03;1.73;;;14.20;99.90;;;;;;5023563;28;20206;-56
2023/10/15 08:26:47;;;;;;;5.53;1.87;;;14.20;99.90;;;;;;5021226;28;20210;-56
2023/10/15 08:29:13;;;;;;;3.77;1.70;;;13.80;99.90;;;;;;5019442;28;20680;-55
2023/10/15 08:31:40;;;;;;;5.17;2.07;;;13.50;99.90;;;;;;5020738;28;20794;-55
2023/10/15 08:34:07;;;;;;;4.73;1.50;;;13.40;99.90;;;;;;5022998;28;20293;-56
2023/10/15 08:36:35;;;;;;;8.73;1.90;;;13.50;99.90;;;;;;5022970;28;20730;-56
2023/10/15 08:39:06;;;;;;;5.03;1.90;;;13.60;99.90;;;;;;5019226;28;20222;-56
2023/10/15 08:41:37;;;;;;;5.40;1.63;;;13.70;99.90;;;;;;5019538;28;20238;-55
2023/10/15 08:44:07;;;;;;;5.80;2.20;;;13.90;99.90;;;;;;5022919;28;20206;-55
2023/10/15 08:46:36;;;;;;;5.73;1.80;;;13.80;99.90;;;;;;5022069;28;20217;-55
2023/10/15 08:49:08;;;;;;;4.93;1.60;;;13.80;99.90;;;;;;5018560;28;20210;-55
2023/10/15 08:51:36;;;;;;;4.57;1.80;;;13.80;99.90;;;;;;5019425;28;20258;-56
2023/10/15 08:54:04;;;;;;;5.00;1.50;;;13.70;99.90;;;;;;5022957;28;20632;-55
2023/10/15 08:56:32;;;;;;;4.13;1.40;;;13.60;99.90;;;;;;5022672;28;20225;-55
2023/10/15 08:58:59;;;;;;;7.63;1.53;;;13.50;99.90;;;;;;5019148;28;20273;-55
2023/10/15 09:01:26;;;;;;;4.40;1.67;;;13.40;99.90;;;;;;5019173;28;20254;-55
2023/10/15 09:03:53;;;;;;;3.13;1.40;;;13.40;99.90;;;;;;5021979;28;20213;-56
2023/10/15 09:06:21;;;;;;;4.73;1.50;;;13.70;99.90;;;;;;5022659;28;20216;-55
2023/10/15 09:08:51;;;;;;;3.67;1.43;;;14.00;99.90;;;;;;5020273;28;20206;-56
2023/10/15 09:11:19;;;;;;;3.70;1.60;;;14.20;99.90;;;;;;5019139;28;20230;-55
2023/10/15 09:13:50;;;;;;;9.17;6.90;;;14.60;99.90;;;;;;5020638;28;20203;-56
2023/10/15 09:16:17;;;;;;;4.50;1.27;;;14.90;99.90;;;;;;5020974;28;20209;-60
2023/10/15 09:18:45;;;;;;;3.27;1.43;;;15.30;99.90;;;;;;5018056;28;20226;-59
2023/10/15 09:21:23;;;;;;;3.33;1.40;;;15.40;99.90;;;;;;5039201;22;20398;-64
2023/10/15 09:23:52;;;;;;;5.00;1.48;;;15.70;99.90;;;;;;5011843;28;20215;-65
2023/10/15 09:26:19;;;;;;;4.93;1.80;;;16.10;99.90;;;;;;5011484;28;20226;-63
2023/10/15 09:28:46;;;;;;;3.80;1.30;;;16.30;99.90;;;;;;5011043;28;20222;-63
2023/10/15 09:31:13;;;;;;;6.10;1.60;;;16.40;99.90;;;;;;5005838;28;20224;-66
2023/10/15 09:33:40;;;;;;;4.30;1.55;;;16.30;99.90;;;;;;5006412;28;20213;-65
2023/10/15 09:36:08;;;;;;;4.30;1.60;;;16.00;99.90;;;;;;4999720;28;20234;-63
2023/10/15 09:38:36;;;;;;;5.80;1.65;;;15.40;99.90;;;;;;4999744;28;20218;-64
2023/10/15 09:41:05;;;;;;;3.33;1.30;;;14.90;99.90;;;;;;5002467;28;20318;-63
2023/10/15 09:43:35;;;;;;;4.70;1.40;;;14.50;99.90;;;;;;5003264;28;20234;-66
2023/10/15 09:46:03;;;;;;;8.73;1.50;;;14.10;99.90;;;;;;4992248;28;20203;-65
2023/10/15 09:48:33;;;;;;;3.60;1.30;;;13.90;99.90;;;;;;4999454;28;20232;-63
2023/10/15 09:51:01;;;;;;;7.00;2.40;;;14.10;99.90;;;;;;4991533;28;20643;-65
2023/10/15 09:53:28;;;;;;;10.73;6.47;;;14.50;99.90;;;;;;4999435;28;20207;-64
2023/10/15 09:55:57;;;;;;;11.13;4.03;;;15.00;99.90;;;;;;5002186;28;20290;-64
2023/10/15 09:58:26;;;;;;;3.35;1.38;;;15.70;99.90;;;;;;5003432;28;20478;-64
2023/10/15 10:01:08;;;;;;;3.38;1.20;;;16.30;99.90;;;;;;5003998;28;20269;-66
2023/10/15 10:04:24;;;;;;;3.38;1.13;;;16.40;99.90;;;;;;5002764;28;20685;-64
2023/10/15 10:07:20;;;;;;;5.65;1.20;;;16.40;99.90;;;;;;5004219;28;20218;-64
2023/10/15 10:10:17;;;;;;;3.53;1.13;;;16.40;99.90;;;;;;5004694;28;20203;-65
2023/10/15 10:13:10;;;;;;;4.53;1.10;;;16.10;99.90;;;;;;5004914;28;20681;-65
2023/10/15 10:15:43;;;;;;;6.80;1.35;;;15.80;99.90;;;;;;5000794;28;20207;-64
2023/10/15 10:18:12;;;;;;;4.63;1.10;;;15.40;99.90;;;;;;5006159;28;20206;-63
2023/10/15 10:20:39;;;;;;;2.70;1.23;;;15.20;99.90;;;;;;5005968;28;20259;-64
2023/10/15 10:23:07;;;;;;;3.77;1.27;;;15.00;99.90;;;;;;5006330;28;20699;-66
2023/10/15 10:25:40;;;;;;;6.90;1.85;;;15.00;99.90;;;;;;5006298;28;20707;-66
2023/10/15 10:28:11;;;;;;;10.00;5.95;;;15.20;99.90;;;;;;4995482;28;20298;-61
2023/10/15 10:30:40;;;;;;;3.45;1.45;;;15.30;99.90;;;;;;5003025;28;20575;-64
2023/10/15 10:33:07;;;;;;;8.90;2.35;;;15.40;99.90;;;;;;5006468;28;20211;-61
2023/10/15 10:35:45;;;;;;;5.07;1.50;;;15.30;99.90;;;;;;4997776;28;20218;-64
2023/10/15 10:38:19;;;;;;;4.70;1.40;;;15.20;99.90;;;;;;4996158;28;20225;-63
2023/10/15 10:40:48;;;;;;;4.60;1.00;;;15.20;99.90;;;;;;5003541;28;20723;-58
2023/10/15 10:43:17;;;;;;;2.83;1.10;;;15.20;99.90;;;;;;4991621;28;20649;-62
2023/10/15 10:45:55;;;;;;;4.30;1.20;;;15.20;99.90;;;;;;4990567;28;20207;-62
2023/10/15 10:48:27;;;;;;;2.20;1.10;;;15.30;99.90;;;;;;4994190;28;20736;-64
2023/10/15 10:51:12;;;;;;;2.60;1.05;;;15.50;99.90;;;;;;4994966;28;20248;-61
2023/10/15 10:53:39;;;;;;;5.35;2.05;;;15.70;99.90;;;;;;4992588;28;20212;-63
2023/10/15 10:56:07;;;;;;;2.83;1.07;;;15.70;99.90;;;;;;4993276;28;20245;-63
2023/10/15 10:58:38;;;;;;;2.72;1.05;;;15.70;99.90;;;;;;4994367;28;20211;-64
2023/10/15 11:01:06;;;;;;;3.47;1.20;;;15.60;99.90;;;;;;4994022;28;20243;-64
2023/10/15 11:03:33;;;;;;;1.77;1.00;;;15.40;99.90;;;;;;4994074;28;20208;-62
2023/10/15 11:06:01;;;;;;;2.57;0.90;;;15.20;99.90;;;;;;4993475;28;20212;-64
2023/10/15 11:08:27;;;;;;;3.17;1.00;;;15.10;99.90;;;;;;4999882;28;20277;-65
2023/10/15 11:10:54;;;;;;;2.22;0.80;;;15.00;99.90;;;;;;4994087;28;20231;-61
2023/10/15 11:13:22;;;;;;;3.20;1.13;;;15.00;99.90;;;;;;5002049;28;20208;-61
2023/10/15 11:15:50;;;;;;;2.70;1.00;;;15.20;99.90;;;;;;5003642;28;20217;-62
2023/10/15 11:18:22;;;;;;;6.22;1.30;;;15.50;99.90;;;;;;5005400;28;20231;-62
2023/10/15 11:20:52;;;;;;;4.05;1.00;;;15.90;99.90;;;;;;5002936;28;20231;-63
2023/10/15 11:23:23;;;;;;;3.33;1.10;;;16.30;99.90;;;;;;5001886;28;20204;-63
2023/10/15 11:25:51;;;;;;;3.05;1.13;;;16.80;99.90;;;;;;5003410;28;20239;-63
2023/10/15 11:28:19;;;;;;;2.55;0.90;;;17.30;99.90;;;;;;5004905;28;20213;-62
2023/10/15 11:30:46;;;;;;;1.92;0.80;;;17.30;99.90;;;;;;5003810;28;20281;-63
2023/10/15 11:33:16;;;;;;;4.13;0.82;;;16.30;99.90;;;;;;5001527;28;20548;-63
2023/10/15 11:35:48;;;;;;;3.83;0.80;;;14.70;99.90;;;;;;5002579;28;20207;-62
2023/10/15 11:38:15;;;;;;;2.13;0.90;;;13.80;99.90;;;;;;5004899;28;20203;-63
2023/10/15 11:40:45;;;;;;;1.83;0.87;;;13.20;99.90;;;;;;5004052;28;20265;-63
2023/10/15 11:43:17;;;;;;;3.47;1.03;;;13.00;99.90;;;;;;5001649;28;20203;-62
2023/10/15 11:45:44;;;;;;;2.73;0.87;;;13.00;99.90;;;;;;5001950;28;20703;-64
2023/10/15 11:48:12;;;;;;;4.10;1.23;;;13.20;99.90;;;;;;5004613;28;20210;-62
2023/10/15 11:50:41;;;;;;;3.87;0.77;;;13.30;99.90;;;;;;5004237;28;20666;-62
2023/10/15 11:53:16;;;;;;;3.63;1.27;;;13.50;99.90;;;;;;5001456;28;20207;-63
2023/10/15 11:55:47;;;;;;;2.83;1.30;;;13.60;99.90;;;;;;5002109;28;20266;-63
2023/10/15 11:58:16;;;;;;;6.63;1.80;;;13.80;99.90;;;;;;5004485;28;20199;-63
2023/10/15 12:00:47;;;;;;;4.77;1.20;;;14.00;99.90;;;;;;5003631;28;20317;-63
2023/10/15 12:03:15;;;;;;;6.93;3.33;;;14.20;99.90;;;;;;5000884;28;20717;-62
2023/10/15 12:05:42;;;;;;;5.00;2.10;;;14.40;99.90;;;;;;5001609;28;20219;-63
2023/10/15 12:08:12;;;;;;;5.63;1.73;;;14.60;99.90;;;;;;5004171;28;20226;-62
2023/10/15 12:10:42;;;;;;;5.07;1.13;;;14.80;99.90;;;;;;5004157;28;20238;-62
2023/10/15 12:13:09;;;;;;;4.80;1.17;;;14.90;99.90;;;;;;5001164;28;20222;-62
2023/10/15 12:15:36;;;;;;;4.63;1.08;;;14.70;99.90;;;;;;5000747;28;20587;-62
2023/10/15 12:18:02;;;;;;;3.63;1.00;;;14.50;99.90;;;;;;5004181;28;20202;-62
2023/10/15 12:20:29;;;;;;;2.37;0.90;;;14.40;99.90;;;;;;5003995;28;20263;-62
2023/10/15 12:22:56;;;;;;;2.95;1.17;;;14.30;99.90;;;;;;5000682;28;20312;-63
2023/10/15 12:25:23;;;;;;;3.43;1.23;;;14.20;99.90;;;;;;5000474;28;20208;-62
2023/10/15 12:27:51;;;;;;;3.97;1.10;;;14.00;99.90;;;;;;5002177;28;20207;-63
2023/10/15 12:30:23;;;;;;;2.73;1.20;;;14.00;99.90;;;;;;5003375;28;20207;-62
2023/10/15 12:32:50;;;;;;;5.80;1.00;;;13.80;99.90;;;;;;5002371;28;20293;-62
2023/10/15 12:35:19;;;;;;;3.03;1.03;;;13.80;99.90;;;;;;5000539;28;20251;-62
2023/10/15 12:37:45;;;;;;;3.47;1.57;;;13.90;99.90;;;;;;5001169;28;20208;-62
2023/10/15 12:40:12;;;;;;;3.80;1.30;;;13.80;99.90;;;;;;5003459;28;20254;-62
2023/10/15 12:42:40;;;;;;;3.10;1.07;;;13.70;99.90;;;;;;5003345;28;20250;-61
2023/10/15 12:45:10;;;;;;;2.70;1.17;;;13.60;99.90;;;;;;5000194;28;20630;-63
2023/10/15 12:47:37;;;;;;;3.80;1.10;;;13.60;99.90;;;;;;5000219;28;20253;-62
2023/10/15 12:50:07;;;;;;;5.20;1.17;;;13.60;99.90;;;;;;5003335;28;20231;-62
2023/10/15 12:52:34;;;;;;;3.67;1.43;;;13.50;99.90;;;;;;5003473;28;20313;-62
2023/10/15 12:55:01;;;;;;;2.70;0.87;;;13.50;99.90;;;;;;5000480;28;20203;-61
2023/10/15 12:57:28;;;;;;;3.90;1.73;;;13.50;99.90;;;;;;5000667;28;20227;-62
2023/10/15 12:59:54;;;;;;;1.73;0.90;;;13.60;99.90;;;;;;5002156;28;20246;-62
2023/10/15 13:02:23;;;;;;;2.40;1.10;;;13.60;99.90;;;;;;5003519;28;20226;-63